Boise Air Terminal/Gowen field
KBOI : now visible

Airfield :











YOU CAN JOIN US ON...

 
LOGIN :

Register | Disclaimer

   EN    FR    IT 

 









Legend :    VFR   Marginal VFR   IFR   Intensive IFR   Very Intensive IFR
Visi :
Ceiling :
>= 8 km
>= 3000ft
5 to 8 km
1000 to 3000 ft
1500m to 5 km
500 to 1000 ft
800 to 1500m
200 to 500 ft
< 800m
< 200 ft
Symbols :   Thunderstorms  Fog  Heavy snow  Heavy precipitations  Wind > 20 kt






- Airport Elevation : 2871 ft
- IATA code : BOI


KBOI - Boise Air Terminal/Gowen field

CURRENT METAR :
  • 250553Z 00000KT 10SM CLR 14/02 A3009 RMK AO2 SLP174 T01440017 10217 20122 51005 $

EXPIRED METARs :
  • 250453Z 19003KT 10SM CLR 14/03 A3008 RMK AO2 SLP176 T01390033 $
  • 250353Z 33003KT 10SM CLR 17/01 A3008 RMK AO2 SLP174 T01670011 $

TAF KBOI
Valid from the 25 at 06:00 until the 26 at 06:00 UTC


250521Z 2506/2606 14005KT P6SM SKC
FM252000 28007KT P6SM BKN200
KZLC FIR / North America



MET'MAP, your aeronautical weather chart ! - Copyright ORBIFLY December 2007 - Disclaimer

ORBIFLY MET'MAP TEAM :

Programming & Development : Alexandra Zaïnal
Concept & original design : Baudouin d'Aumeries
Assistance for programming : Marc-Olivier Méhu
Technical & hardware support : Manuel Goepfert

Contact : metmap@orbifly.com




SOURCES & CREDITS :

   NOAA       Earth
Advisory